Time;durP1;ratioP1;P1;durP2;ratioP2;P2;SDS_P1;SDS_P2;PMS_P1;PMS_P2;Temp;Humidity;BMP_temperature;BMP_pressure;BME280_temperature;BME280_humidity;BME280_pressure;Samples;Min_cycle;Max_cycle;Signal;HPM_P1;HPM_P2
2022/05/18 00:00:00;;;;;;;4.40;2.30;;;;;;;14.38;100.00;96338.84;4991443;28;24474;-73
2022/05/18 00:02:27;;;;;;;2.95;1.85;;;;;;;14.42;100.00;96344.69;4992048;28;25045;-73
2022/05/18 00:04:54;;;;;;;4.70;2.00;;;;;;;14.46;100.00;96339.19;4991372;28;24525;-73
2022/05/18 00:07:20;;;;;;;2.47;1.80;;;;;;;14.46;100.00;96338.31;4991460;28;25016;-73
2022/05/18 00:09:47;;;;;;;4.50;1.80;;;;;;;14.38;100.00;96343.25;4991228;28;24437;-73
2022/05/18 00:12:15;;;;;;;3.15;1.80;;;;;;;14.24;100.00;96349.41;4991266;28;24469;-73
2022/05/18 00:14:41;;;;;;;4.50;2.30;;;;;;;14.19;100.00;96352.31;4991182;28;24444;-73
2022/05/18 00:17:08;;;;;;;4.00;2.17;;;;;;;14.16;100.00;96354.28;4991112;28;25072;-72
2022/05/18 00:19:34;;;;;;;2.55;2.00;;;;;;;14.10;100.00;96355.56;4991153;28;24443;-73
2022/05/18 00:22:01;;;;;;;4.63;2.20;;;;;;;14.07;100.00;96350.53;4991057;28;24437;-73
2022/05/18 00:24:28;;;;;;;6.18;2.47;;;;;;;14.02;100.00;96345.66;4991019;28;24441;-74
2022/05/18 00:26:55;;;;;;;4.47;2.07;;;;;;;13.95;100.00;96352.22;4991018;28;24444;-73
2022/05/18 00:29:23;;;;;;;2.97;2.25;;;;;;;13.84;100.00;96359.91;4991218;28;24441;-73
2022/05/18 00:31:49;;;;;;;3.42;2.28;;;;;;;13.81;100.00;96357.50;4991116;28;25047;-73
2022/05/18 00:34:17;;;;;;;4.93;2.40;;;;;;;13.89;100.00;96359.59;4991172;28;24461;-72
2022/05/18 00:36:43;;;;;;;3.92;2.22;;;;;;;14.00;100.00;96362.31;4994993;28;24467;-73
2022/05/18 00:39:10;;;;;;;5.43;2.47;;;;;;;14.07;100.00;96363.56;4994968;28;24445;-72
2022/05/18 00:41:37;;;;;;;3.88;2.08;;;;;;;14.01;100.00;96356.16;4994891;28;24441;-73
2022/05/18 00:44:05;;;;;;;3.60;2.22;;;;;;;13.95;100.00;96360.03;4994363;28;24456;-73
2022/05/18 00:46:33;;;;;;;2.97;1.85;;;;;;;13.96;100.00;96360.84;4994698;28;24831;-72
2022/05/18 00:49:05;;;;;;;3.72;2.40;;;;;;;13.97;100.00;96365.94;4994334;28;24985;-73
2022/05/18 00:51:37;;;;;;;3.50;1.90;;;;;;;13.99;100.00;96358.88;4994800;28;24587;-73
2022/05/18 00:54:10;;;;;;;4.13;2.40;;;;;;;13.95;100.00;96359.19;4994193;28;24444;-73
2022/05/18 00:56:40;;;;;;;2.97;2.03;;;;;;;13.88;100.00;96350.13;4994650;28;24441;-72
2022/05/18 00:59:10;;;;;;;2.80;2.05;;;;;;;13.78;100.00;96357.69;4994412;28;24492;-73
2022/05/18 01:01:39;;;;;;;3.33;2.30;;;;;;;13.74;100.00;96349.25;4994279;28;24511;-72
2022/05/18 01:04:07;;;;;;;3.10;1.77;;;;;;;13.77;100.00;96358.63;4993876;28;25025;-73
2022/05/18 01:06:38;;;;;;;4.13;2.20;;;;;;;13.81;100.00;96357.50;4994357;28;24432;-73
2022/05/18 01:09:07;;;;;;;3.58;2.15;;;;;;;13.70;100.00;96358.19;4994336;28;24955;-73
2022/05/18 01:11:35;;;;;;;4.28;2.42;;;;;;;13.64;100.00;96358.59;4994278;28;24420;-73
2022/05/18 01:14:04;;;;;;;2.63;1.83;;;;;;;13.72;100.00;96358.09;4994084;28;24448;-73
2022/05/18 01:16:31;;;;;;;2.13;1.80;;;;;;;13.73;100.00;96363.22;4988312;28;24440;-73
2022/05/18 01:19:00;;;;;;;3.28;2.08;;;;;;;13.65;100.00;96357.69;4994146;28;24420;-73
2022/05/18 01:21:35;;;;;;;2.92;2.22;;;;;;;13.71;100.00;96356.44;4974663;28;24837;-72
2022/05/18 01:24:10;;;;;;;3.03;2.03;;;;;;;13.74;100.00;96359.66;4983473;28;25211;-73
2022/05/18 01:26:42;;;;;;;2.23;1.87;;;;;;;13.71;100.00;96359.88;4994920;28;24443;-73
2022/05/18 01:29:09;;;;;;;2.42;1.90;;;;;;;13.71;100.00;96367.66;4994533;28;24433;-73
2022/05/18 01:31:44;;;;;;;4.10;2.08;;;;;;;13.69;100.00;96369.56;4994220;28;24433;-73
2022/05/18 01:34:11;;;;;;;2.97;2.08;;;;;;;13.67;100.00;96376.63;4993592;28;24488;-72
2022/05/18 01:36:37;;;;;;;4.28;2.20;;;;;;;13.66;100.00;96372.34;4993557;28;24982;-73
2022/05/18 01:39:07;;;;;;;2.00;1.70;;;;;;;13.64;100.00;96376.81;4993713;28;24445;-73
2022/05/18 01:41:38;;;;;;;3.42;1.90;;;;;;;13.56;100.00;96377.31;4977645;28;24480;-73
2022/05/18 01:44:06;;;;;;;3.40;2.00;;;;;;;13.50;100.00;96367.31;4993247;28;24456;-73
2022/05/18 01:46:33;;;;;;;4.45;2.08;;;;;;;13.46;100.00;96376.25;4992593;28;24436;-73
2022/05/18 01:48:59;;;;;;;6.65;2.15;;;;;;;13.33;100.00;96364.97;4993688;28;24793;-73
2022/05/18 01:51:30;;;;;;;3.55;1.90;;;;;;;13.21;100.00;96366.56;4993399;28;25009;-73
2022/05/18 01:53:56;;;;;;;4.40;1.95;;;;;;;13.17;100.00;96366.84;4993503;28;24433;-73
2022/05/18 01:56:23;;;;;;;5.40;2.07;;;;;;;12.99;100.00;96358.44;4992708;28;24983;-73
2022/05/18 01:58:50;;;;;;;2.30;2.00;;;;;;;12.96;100.00;96364.66;4993838;28;24531;-73
2022/05/18 02:01:17;;;;;;;4.37;1.80;;;;;;;12.81;100.00;96363.84;4993561;28;24517;-73
2022/05/18 02:03:44;;;;;;;2.90;2.15;;;;;;;12.79;100.00;96363.13;4993279;28;24448;-73
2022/05/18 02:06:10;;;;;;;4.68;1.65;;;;;;;12.84;100.00;96366.28;4992863;28;24448;-72
2022/05/18 02:08:37;;;;;;;2.40;1.83;;;;;;;12.84;100.00;96366.28;4993053;28;24441;-73
2022/05/18 02:11:04;;;;;;;4.13;2.05;;;;;;;12.86;100.00;96362.72;4993300;28;24870;-73
2022/05/18 02:13:30;;;;;;;2.90;2.03;;;;;;;12.84;100.00;96365.44;4993249;28;24440;-73
2022/05/18 02:15:57;;;;;;;3.00;2.15;;;;;;;12.90;100.00;96365.03;4993003;28;24448;-73
2022/05/18 02:18:25;;;;;;;4.10;2.28;;;;;;;12.82;100.00;96364.69;4993064;28;24969;-73
2022/05/18 02:20:51;;;;;;;5.25;2.38;;;;;;;12.77;100.00;96375.38;4976395;28;24437;-73
2022/05/18 02:23:17;;;;;;;4.80;2.30;;;;;;;12.78;100.00;96374.44;4992592;28;25019;-72
2022/05/18 02:25:44;;;;;;;5.60;2.30;;;;;;;12.83;100.00;96382.81;4992549;28;24437;-73
2022/05/18 02:28:10;;;;;;;3.72;2.40;;;;;;;12.85;100.00;96387.91;4993114;28;24440;-73
2022/05/18 02:30:37;;;;;;;3.08;2.15;;;;;;;12.88;100.00;96376.47;4992621;28;24902;-72
2022/05/18 02:33:04;;;;;;;3.25;2.13;;;;;;;12.86;100.00;96391.31;4992716;28;24523;-73
2022/05/18 02:35:32;;;;;;;2.37;2.17;;;;;;;12.75;100.00;96398.00;4992545;28;24444;-72
2022/05/18 02:37:58;;;;;;;2.90;2.10;;;;;;;12.69;100.00;96393.22;4991335;28;25052;-72
2022/05/18 02:40:25;;;;;;;2.85;2.13;;;;;;;12.64;100.00;96395.25;4991680;28;24441;-72
2022/05/18 02:42:51;;;;;;;3.03;2.00;;;;;;;12.62;100.00;96394.50;4991763;28;24452;-72
2022/05/18 02:45:18;;;;;;;3.30;2.22;;;;;;;12.57;100.00;96399.16;4991619;28;24503;-72
2022/05/18 02:47:44;;;;;;;2.25;1.98;;;;;;;12.60;100.00;96393.75;4991485;28;24513;-72
2022/05/18 02:50:11;;;;;;;3.13;1.95;;;;;;;12.54;100.00;96394.16;4991687;28;24433;-72
2022/05/18 02:52:39;;;;;;;3.72;2.22;;;;;;;12.52;100.00;96391.63;4991273;28;25001;-72
2022/05/18 02:57:51;;;;;;;3.22;2.05;;;;;;;12.32;100.00;96395.44;4991188;28;24556;-72
2022/05/18 03:00:18;;;;;;;6.25;2.58;;;;;;;12.26;100.00;96392.38;4991430;28;24524;-72
2022/05/18 03:02:44;;;;;;;2.72;1.85;;;;;;;12.32;100.00;96389.41;4991398;28;24499;-72
2022/05/18 03:05:10;;;;;;;3.07;2.10;;;;;;;12.31;100.00;96388.59;4990948;28;24461;-72
2022/05/18 03:07:39;;;;;;;3.40;1.90;;;;;;;12.31;100.00;96395.50;4991486;28;24445;-72
2022/05/18 03:10:06;;;;;;;3.53;2.20;;;;;;;12.32;100.00;96387.66;4991277;28;24483;-72
2022/05/18 03:12:32;;;;;;;3.13;2.22;;;;;;;12.35;100.00;96390.06;4991390;28;24957;-72
2022/05/18 03:14:59;;;;;;;3.22;2.25;;;;;;;12.43;100.00;96391.38;4990770;28;24827;-72
2022/05/18 03:17:25;;;;;;;3.00;2.30;;;;;;;12.40;100.00;96404.53;4991188;28;24441;-73
2022/05/18 03:19:52;;;;;;;3.35;2.13;;;;;;;12.48;100.00;96407.50;4991177;28;24491;-72
2022/05/18 03:25:05;;;;;;;3.25;2.10;;;;;;;12.51;100.00;96412.53;4990826;28;24596;-72
2022/05/18 03:27:32;;;;;;;2.63;1.85;;;;;;;12.49;100.00;96420.38;4990907;28;24990;-72
2022/05/18 03:29:58;;;;;;;2.35;1.83;;;;;;;12.39;100.00;96427.09;4991394;28;24449;-72
2022/05/18 03:32:25;;;;;;;4.53;2.60;;;;;;;12.33;100.00;96423.06;4990843;28;25052;-72
2022/05/18 03:34:51;;;;;;;6.88;2.55;;;;;;;12.37;100.00;96418.53;4990697;28;24584;-72
2022/05/18 03:37:18;;;;;;;3.75;2.25;;;;;;;12.25;100.00;96424.47;4991045;28;24448;-73
2022/05/18 03:39:45;;;;;;;2.85;2.40;;;;;;;12.20;100.00;96418.69;4991129;28;24437;-72
2022/05/18 03:42:13;;;;;;;5.27;2.20;;;;;;;12.12;100.00;96424.31;4991040;28;24441;-72
2022/05/18 03:44:39;;;;;;;6.43;2.30;;;;;;;12.17;100.00;96416.28;4990398;28;24457;-72
2022/05/18 03:47:06;;;;;;;2.88;2.20;;;;;;;12.22;100.00;96420.28;4991016;28;24445;-72
2022/05/18 03:49:33;;;;;;;3.83;2.35;;;;;;;12.15;100.00;96418.97;4991151;28;24429;-72
2022/05/18 03:52:00;;;;;;;4.80;2.37;;;;;;;12.08;100.00;96420.25;4990889;28;25045;-72
2022/05/18 03:54:27;;;;;;;4.78;2.20;;;;;;;12.21;100.00;96428.16;4990510;28;24496;-72
2022/05/18 03:56:53;;;;;;;4.57;2.47;;;;;;;12.26;100.00;96432.16;4991017;28;24504;-72
2022/05/18 03:59:21;;;;;;;6.30;2.60;;;;;;;12.25;100.00;96427.88;4990668;28;24433;-72
2022/05/18 04:01:47;;;;;;;2.50;2.10;;;;;;;12.25;100.00;96433.09;4990792;28;24436;-72
2022/05/18 04:04:14;;;;;;;2.70;2.05;;;;;;;12.25;100.00;96435.69;4990477;28;24460;-72
2022/05/18 04:06:40;;;;;;;1.90;1.75;;;;;;;12.28;100.00;96439.88;4990859;28;24425;-71
2022/05/18 04:09:07;;;;;;;4.20;2.47;;;;;;;12.35;100.00;96434.22;4990971;28;24495;-72
2022/05/18 04:11:33;;;;;;;2.53;1.90;;;;;;;12.16;100.00;96431.00;4994749;28;24838;-72
2022/05/18 04:14:00;;;;;;;5.32;2.20;;;;;;;12.10;100.00;96436.59;4993003;28;24484;-71
2022/05/18 04:16:27;;;;;;;2.33;2.00;;;;;;;12.05;100.00;96430.81;4994436;28;25021;-71
2022/05/18 04:18:54;;;;;;;3.00;2.25;;;;;;;11.84;100.00;96431.13;4994702;28;24480;-72
2022/05/18 04:21:20;;;;;;;3.05;2.03;;;;;;;11.80;100.00;96437.38;4994157;28;24437;-73
2022/05/18 04:23:47;;;;;;;3.60;2.28;;;;;;;11.89;100.00;96433.47;4994090;28;24523;-72
2022/05/18 04:26:13;;;;;;;3.90;2.28;;;;;;;11.97;100.00;96433.00;4994076;28;24445;-72
2022/05/18 04:28:40;;;;;;;3.27;2.50;;;;;;;12.02;100.00;96436.19;4992927;28;24835;-74
2022/05/18 04:31:06;;;;;;;4.88;2.88;;;;;;;12.07;100.00;96436.75;4991665;28;24988;-73
2022/05/18 04:33:34;;;;;;;6.15;3.05;;;;;;;12.24;100.00;96449.59;4993507;28;24420;-73
2022/05/18 04:36:02;;;;;;;5.45;4.18;;;;;;;12.31;100.00;96461.31;4993244;28;24448;-72
2022/05/18 04:38:29;;;;;;;5.85;4.03;;;;;;;12.31;100.00;96457.84;4993701;28;24464;-72
2022/05/18 04:40:57;;;;;;;6.65;4.05;;;;;;;12.39;100.00;96460.03;4993714;28;24476;-72
2022/05/18 04:43:23;;;;;;;5.13;3.33;;;;;;;12.49;100.00;96459.34;4993395;28;24536;-72
2022/05/18 04:45:51;;;;;;;5.72;3.88;;;;;;;12.63;100.00;96455.13;4993168;28;24444;-73
2022/05/18 04:48:19;;;;;;;8.70;4.55;;;;;;;12.79;100.00;96456.72;4992423;28;24552;-72
2022/05/18 04:50:48;;;;;;;9.00;4.57;;;;;;;12.87;100.00;96460.59;4993156;28;24440;-73
2022/05/18 04:53:15;;;;;;;4.45;3.75;;;;;;;12.94;100.00;96462.75;4992663;28;24529;-72
2022/05/18 04:55:42;;;;;;;15.13;4.50;;;;;;;13.03;100.00;96469.13;4993009;28;24839;-73
2022/05/18 04:58:08;;;;;;;9.27;3.67;;;;;;;13.16;100.00;96469.19;4993043;28;24495;-72
2022/05/18 05:00:37;;;;;;;11.93;3.38;;;;;;;13.27;100.00;96466.78;4993038;28;24440;-72
2022/05/18 05:03:04;;;;;;;7.22;2.83;;;;;;;13.38;100.00;96474.75;4992544;28;24539;-72
2022/05/18 05:05:31;;;;;;;8.27;3.00;;;;;;;13.36;100.00;96483.63;4992911;28;24610;-73
2022/05/18 05:07:58;;;;;;;4.55;2.58;;;;;;;13.40;100.00;96478.13;4992912;28;24440;-73
2022/05/18 05:10:25;;;;;;;8.07;3.00;;;;;;;13.59;100.00;96475.19;4993053;28;24433;-73
2022/05/18 05:12:52;;;;;;;4.25;2.92;;;;;;;13.72;100.00;96486.50;4993350;28;24437;-73
2022/05/18 05:15:19;;;;;;;3.17;2.35;;;;;;;13.78;100.00;96488.69;4991834;28;24448;-73
2022/05/18 05:17:45;;;;;;;4.38;2.97;;;;;;;13.99;100.00;96485.66;4991556;28;24440;-73
2022/05/18 05:20:13;;;;;;;4.95;2.83;;;;;;;14.09;100.00;96485.88;4992394;28;24488;-73
2022/05/18 05:22:39;;;;;;;4.40;2.97;;;;;;;14.22;100.00;96492.78;4992581;28;24444;-74
2022/05/18 05:25:08;;;;;;;3.58;2.80;;;;;;;14.09;100.00;96491.09;4990787;28;24469;-74
2022/05/18 05:27:34;;;;;;;5.18;3.30;;;;;;;14.12;100.00;96483.06;4993353;28;24818;-75
2022/05/18 05:30:01;;;;;;;6.57;3.67;;;;;;;14.11;100.00;96484.00;4992979;28;24974;-74
2022/05/18 05:32:27;;;;;;;6.95;3.25;;;;;;;14.08;100.00;96484.22;4992820;28;24429;-74
2022/05/18 05:34:54;;;;;;;5.68;3.60;;;;;;;14.11;100.00;96482.25;4991411;28;24440;-72
2022/05/18 05:37:21;;;;;;;9.05;3.95;;;;;;;14.19;100.00;96482.56;4990657;28;24437;-74
2022/05/18 05:39:47;;;;;;;8.30;3.60;;;;;;;14.40;100.00;96480.31;4992311;28;24440;-72
2022/05/18 05:42:15;;;;;;;5.78;3.85;;;;;;;14.46;100.00;96479.91;4992420;28;24842;-73
2022/05/18 05:44:41;;;;;;;7.80;4.03;;;;;;;14.58;100.00;96480.91;4991433;28;25017;-73
2022/05/18 05:47:11;;;;;;;13.30;5.20;;;;;;;14.71;100.00;96491.31;4991526;28;24429;-73
2022/05/18 05:49:38;;;;;;;11.20;5.10;;;;;;;14.83;100.00;96489.66;4992695;28;24807;-74
2022/05/18 05:52:05;;;;;;;15.90;6.23;;;;;;;14.90;100.00;96491.72;4992643;28;24494;-73
2022/05/18 05:54:33;;;;;;;15.18;5.97;;;;;;;14.93;100.00;96494.13;4992491;28;24433;-74
2022/05/18 05:57:02;;;;;;;16.23;6.00;;;;;;;14.93;100.00;96485.47;4992570;28;24911;-77
2022/05/18 05:59:31;;;;;;;17.77;6.40;;;;;;;15.15;100.00;96488.25;4991462;28;24448;-72
2022/05/18 06:01:59;;;;;;;18.27;6.55;;;;;;;15.38;100.00;96488.44;4992668;28;24528;-73
2022/05/18 06:04:25;;;;;;;14.68;5.43;;;;;;;15.65;100.00;96491.75;4991732;28;24461;-73
2022/05/18 06:06:52;;;;;;;13.90;5.35;;;;;;;15.91;100.00;96492.47;4992368;28;24440;-73
2022/05/18 06:09:18;;;;;;;18.73;4.85;;;;;;;15.90;100.00;96488.16;4992397;28;24436;-73
2022/05/18 06:11:45;;;;;;;13.88;4.47;;;;;;;16.18;100.00;96486.16;4991906;28;24491;-75
2022/05/18 06:14:11;;;;;;;13.03;4.67;;;;;;;16.45;100.00;96496.34;4991805;28;24499;-74
2022/05/18 06:16:39;;;;;;;10.30;4.53;;;;;;;16.50;97.99;96494.25;4991902;28;25001;-74
2022/05/18 06:19:05;;;;;;;10.20;4.18;;;;;;;16.80;98.18;96496.34;4991616;28;24454;-73
2022/05/18 06:21:32;;;;;;;12.23;4.25;;;;;;;17.03;94.61;96502.44;4992271;28;24440;-73
2022/05/18 06:23:58;;;;;;;8.07;3.90;;;;;;;17.20;92.49;96493.25;4991936;28;24437;-74
2022/05/18 06:26:26;;;;;;;8.18;4.22;;;;;;;17.15;94.31;96496.25;4991579;28;24803;-73
2022/05/18 06:28:52;;;;;;;5.72;3.58;;;;;;;17.53;93.35;96486.34;4991644;28;24507;-73
2022/05/18 06:31:19;;;;;;;8.75;4.03;;;;;;;17.77;89.93;96496.69;4991433;28;24507;-73
2022/05/18 06:33:47;;;;;;;9.23;4.20;;;;;;;18.01;88.23;96494.69;4989504;28;24441;-74
2022/05/18 06:36:13;;;;;;;9.10;4.15;;;;;;;18.22;85.75;96497.38;4991411;28;24535;-74
2022/05/18 06:38:40;;;;;;;7.07;4.30;;;;;;;17.97;86.40;96490.66;4991746;28;24463;-74
2022/05/18 06:41:22;;;;;;;7.68;4.25;;;;;;;18.14;85.33;96498.00;4991241;28;24444;-74
2022/05/18 06:43:49;;;;;;;4.47;3.67;;;;;;;18.37;82.44;96496.09;4990986;28;24476;-74
2022/05/18 06:46:15;;;;;;;9.85;3.78;;;;;;;18.38;81.67;96494.31;4991086;28;24453;-74
2022/05/18 06:48:42;;;;;;;9.03;4.50;;;;;;;18.25;83.04;96499.75;4990855;28;25094;-74
2022/05/18 06:51:10;;;;;;;11.13;3.70;;;;;;;18.37;82.30;96492.66;4991096;28;24436;-74
2022/05/18 06:53:38;;;;;;;7.25;3.53;;;;;;;18.48;81.90;96492.59;4989481;28;24441;-73
2022/05/18 06:56:05;;;;;;;8.98;3.88;;;;;;;18.62;82.71;96491.47;4990496;28;25080;-73
2022/05/18 06:58:32;;;;;;;13.23;3.92;;;;;;;18.59;78.12;96500.41;4991415;28;24437;-73
2022/05/18 07:01:01;;;;;;;10.38;3.67;;;;;;;18.78;77.13;96498.91;4990724;28;24441;-73
2022/05/18 07:03:27;;;;;;;9.82;3.90;;;;;;;18.97;76.67;96501.63;4988290;28;24441;-73
2022/05/18 07:05:54;;;;;;;9.97;4.20;;;;;;;18.98;75.12;96499.81;4990893;28;24475;-73
2022/05/18 07:08:21;;;;;;;12.68;4.07;;;;;;;19.03;75.60;96498.50;4991201;28;24444;-73
2022/05/18 07:10:48;;;;;;;10.07;4.13;;;;;;;19.14;75.24;96491.50;4990745;28;24804;-73
2022/05/18 07:13:17;;;;;;;6.38;3.97;;;;;;;19.30;75.09;96497.91;4989258;28;24499;-73
2022/05/18 07:15:44;;;;;;;6.47;3.88;;;;;;;19.37;75.08;96498.22;4989046;28;24451;-73
2022/05/18 07:18:11;;;;;;;5.73;3.63;;;;;;;19.53;72.39;96498.53;4990505;28;25033;-74
2022/05/18 07:20:37;;;;;;;6.00;3.90;;;;;;;19.50;73.20;96501.41;4990453;28;25036;-73
2022/05/18 07:23:04;;;;;;;10.40;4.30;;;;;;;19.66;73.56;96497.50;4991219;28;24436;-73
2022/05/18 07:25:32;;;;;;;7.23;4.00;;;;;;;19.88;71.76;96494.66;4990701;28;24515;-73
2022/05/18 07:27:58;;;;;;;6.90;3.83;;;;;;;19.85;71.86;96500.19;4990348;28;25013;-73
2022/05/18 07:30:25;;;;;;;6.68;4.07;;;;;;;20.02;71.49;96494.25;4990490;28;25013;-74
2022/05/18 07:32:51;;;;;;;5.10;3.80;;;;;;;20.13;71.74;96493.28;4990133;28;24990;-74
2022/05/18 07:35:18;;;;;;;8.50;4.20;;;;;;;20.22;71.40;96499.53;4988109;28;24772;-74
2022/05/18 07:37:44;;;;;;;4.65;3.63;;;;;;;20.30;70.83;96504.91;4989784;28;24484;-74
2022/05/18 07:40:13;;;;;;;7.35;4.18;;;;;;;20.30;68.89;96507.56;4987537;28;24448;-74
2022/05/18 07:42:41;;;;;;;6.65;4.10;;;;;;;20.36;69.43;96506.16;4988454;28;24549;-75
2022/05/18 07:45:09;;;;;;;5.07;4.05;;;;;;;20.38;69.61;96504.22;4990909;28;24468;-74
2022/05/18 07:47:35;;;;;;;10.25;3.72;;;;;;;20.66;69.19;96499.94;4994315;28;24440;-75
2022/05/18 07:50:01;;;;;;;8.77;4.50;;;;;;;20.72;68.20;96500.19;4994456;28;24464;-75
2022/05/18 07:52:28;;;;;;;7.07;3.67;;;;;;;20.50;69.01;96489.97;4995204;28;24437;-75
2022/05/18 07:54:55;;;;;;;4.47;3.70;;;;;;;20.81;67.52;96503.81;4993589;28;24443;-73
2022/05/18 07:57:22;;;;;;;5.07;3.53;;;;;;;20.78;68.25;96504.06;4994509;28;24449;-75
2022/05/18 07:59:55;;;;;;;4.65;3.50;;;;;;;21.10;66.80;96508.13;4993790;28;24440;-75
2022/05/18 08:02:21;;;;;;;4.68;3.72;;;;;;;21.38;66.42;96493.25;5003908;28;25001;-75
2022/05/18 08:04:48;;;;;;;5.57;3.67;;;;;;;21.40;65.78;96505.31;4997398;28;24515;-73
2022/05/18 08:07:14;;;;;;;5.20;3.88;;;;;;;21.48;65.48;96497.50;4999562;28;24444;-73
2022/05/18 08:15:07;;;;;;;4.50;3.00;;;;;;;21.89;63.93;96492.69;4993428;28;24491;-72
2022/05/18 08:17:34;;;;;;;5.57;2.80;;;;;;;22.66;61.96;96498.38;4994076;28;24492;-72
2022/05/18 08:20:05;;;;;;;4.85;2.75;;;;;;;22.95;60.79;96498.09;4993651;28;24860;-73
2022/05/18 08:22:31;;;;;;;5.13;2.90;;;;;;;23.35;51.87;96496.66;4994186;28;24441;-72
2022/05/18 08:24:57;;;;;;;5.57;3.00;;;;;;;23.71;52.36;96500.00;4991456;28;24467;-71
2022/05/18 08:27:24;;;;;;;3.90;2.47;;;;;;;23.74;49.80;96499.69;4992838;28;24913;-73
2022/05/18 08:29:50;;;;;;;4.30;2.95;;;;;;;23.95;51.43;96496.59;4999614;28;24846;-72
2022/05/18 08:32:18;;;;;;;4.68;2.20;;;;;;;24.15;53.05;96502.44;4991062;28;24445;-72
2022/05/18 08:34:44;;;;;;;5.07;2.50;;;;;;;24.55;53.79;96504.34;5006337;28;24448;-73
2022/05/18 08:37:11;;;;;;;6.95;2.83;;;;;;;24.53;48.79;96506.31;4988964;28;24448;-72
2022/05/18 08:39:37;;;;;;;4.10;2.70;;;;;;;24.49;47.97;96509.44;4992732;28;24524;-72
2022/05/18 08:42:05;;;;;;;4.03;2.50;;;;;;;24.61;49.01;96505.47;4993521;28;24463;-72
2022/05/18 08:44:34;;;;;;;6.38;2.78;;;;;;;24.62;47.38;96505.31;4992339;28;24444;-72
2022/05/18 08:47:13;;;;;;;4.82;3.05;;;;;;;24.69;46.19;96513.41;4991121;28;24990;-72
2022/05/18 08:49:56;;;;;;;4.43;2.20;;;;;;;24.86;44.60;96512.41;4993380;28;24429;-72
2022/05/18 08:52:34;;;;;;;4.57;2.63;;;;;;;24.78;44.55;96511.59;4982774;28;24511;-71
2022/05/18 08:55:16;;;;;;;4.03;2.55;;;;;;;24.72;44.85;96514.91;4992940;28;24799;-71
2022/05/18 08:57:44;;;;;;;3.22;2.28;;;;;;;24.84;44.18;96513.56;4993301;28;24441;-71
2022/05/18 09:00:16;;;;;;;3.45;2.00;;;;;;;24.83;42.46;96509.28;4993336;28;24441;-72
2022/05/18 09:02:43;;;;;;;6.83;2.30;;;;;;;25.10;42.58;96516.03;4993620;28;24464;-72
2022/05/18 09:05:14;;;;;;;2.75;1.92;;;;;;;25.10;41.60;96510.75;4992366;28;24460;-72
2022/05/18 09:07:47;;;;;;;2.90;2.00;;;;;;;25.03;42.27;96507.94;4993136;28;24942;-72
2022/05/18 09:10:23;;;;;;;4.23;2.37;;;;;;;25.13;44.79;96513.06;4993327;28;24448;-72
2022/05/18 09:12:50;;;;;;;5.10;2.35;;;;;;;25.35;44.39;96515.00;4993492;28;24437;-71
2022/05/18 09:15:19;;;;;;;4.10;2.40;;;;;;;25.02;40.52;96510.75;4992835;28;24537;-71
2022/05/18 09:17:54;;;;;;;4.57;2.00;;;;;;;24.84;40.00;96510.91;4992884;28;24473;-71
2022/05/18 09:20:24;;;;;;;2.95;1.80;;;;;;;25.06;41.96;96515.53;4992735;28;24444;-71
2022/05/18 09:23:07;;;;;;;3.47;2.30;;;;;;;25.27;42.44;96511.56;4993261;28;24444;-71
2022/05/18 09:25:45;;;;;;;3.35;2.15;;;;;;;25.51;43.10;96502.69;4992906;28;24879;-73
2022/05/18 09:28:23;;;;;;;3.33;2.10;;;;;;;25.66;44.29;96500.13;4992841;28;24561;-71
2022/05/18 09:31:00;;;;;;;2.83;1.98;;;;;;;25.85;42.36;96493.63;4992454;28;24445;-72
2022/05/18 09:33:46;;;;;;;3.65;2.30;;;;;;;26.04;44.33;96498.50;4992654;28;24437;-71
2022/05/18 09:36:34;;;;;;;4.03;2.25;;;;;;;26.30;43.01;96499.00;4992381;28;24441;-72
2022/05/18 09:39:07;;;;;;;2.95;2.17;;;;;;;26.69;44.26;96497.22;4987003;28;24495;-72
2022/05/18 09:41:37;;;;;;;3.60;2.20;;;;;;;26.00;42.35;96497.19;4992351;28;24830;-71
2022/05/18 09:44:13;;;;;;;3.92;2.38;;;;;;;25.63;42.61;96492.53;4992095;28;25045;-71
2022/05/18 09:46:42;;;;;;;9.80;2.22;;;;;;;25.74;48.22;96485.03;4992449;28;24989;-71
2022/05/18 09:49:17;;;;;;;3.53;2.00;;;;;;;26.33;44.40;96483.69;4992700;28;24448;-71
2022/05/18 09:51:46;;;;;;;3.90;2.15;;;;;;;26.19;44.71;96480.81;4992214;28;24986;-71
2022/05/18 09:54:12;;;;;;;5.78;2.15;;;;;;;25.98;45.89;96484.09;4992093;28;24437;-71
2022/05/18 09:56:44;;;;;;;2.65;1.60;;;;;;;26.09;40.22;96484.69;4992437;28;24436;-71
2022/05/18 09:59:15;;;;;;;3.38;1.90;;;;;;;26.25;43.72;96476.59;4992469;28;24472;-71
2022/05/18 10:07:34;;;;;;;3.05;1.80;;;;;;;25.55;45.61;96480.97;4991789;28;24437;-71
2022/05/18 10:10:09;;;;;;;2.83;1.80;;;;;;;25.63;48.21;96479.28;4992062;28;24436;-71
2022/05/18 10:12:40;;;;;;;2.90;1.70;;;;;;;25.75;47.43;96472.59;4992266;28;24997;-71
2022/05/18 10:15:19;;;;;;;3.58;1.63;;;;;;;25.88;41.69;96466.72;4992221;28;24444;-71
2022/05/18 10:17:50;;;;;;;2.05;1.65;;;;;;;25.96;45.97;96472.84;4992383;28;24453;-71
2022/05/18 10:20:24;;;;;;;2.60;1.35;;;;;;;25.92;44.29;96468.03;4992331;28;25000;-71
2022/05/18 10:22:52;;;;;;;2.13;1.60;;;;;;;25.74;44.71;96474.41;4992351;28;24986;-71
2022/05/18 10:25:27;;;;;;;2.00;1.35;;;;;;;25.77;37.96;96460.81;4991730;28;24863;-71
2022/05/18 10:27:54;;;;;;;4.97;1.80;;;;;;;26.11;44.54;96464.94;4991978;28;24695;-71
2022/05/18 10:30:28;;;;;;;4.18;1.52;;;;;;;26.18;41.71;96462.38;4992027;28;24464;-71
2022/05/18 10:32:58;;;;;;;2.33;1.55;;;;;;;26.33;47.10;96458.00;4991972;28;24437;-72
2022/05/18 10:35:48;;;;;;;4.10;1.98;;;;;;;26.17;42.32;96460.75;4991767;28;24818;-71
2022/05/18 10:38:20;;;;;;;6.13;1.70;;;;;;;25.85;44.98;96461.78;4976947;28;25005;-71
2022/05/18 10:40:46;;;;;;;2.72;1.52;;;;;;;25.87;40.19;96463.25;4991933;28;24440;-71
2022/05/18 10:43:29;;;;;;;6.57;1.58;;;;;;;25.95;41.57;96460.53;4991654;28;24433;-71
2022/05/18 10:45:57;;;;;;;3.70;1.63;;;;;;;26.35;46.74;96463.09;4991106;28;24461;-71
2022/05/18 10:48:27;;;;;;;2.95;1.80;;;;;;;26.24;44.03;96462.50;4991925;28;24431;-71
2022/05/18 10:51:01;;;;;;;4.57;1.30;;;;;;;26.21;40.90;96462.84;4991819;28;24440;-71
2022/05/18 10:53:36;;;;;;;2.63;1.73;;;;;;;26.30;43.04;96459.16;4990989;28;25893;-71
2022/05/18 10:56:08;;;;;;;2.40;1.33;;;;;;;26.29;41.57;96454.84;4991077;28;24462;-72
2022/05/18 10:58:43;;;;;;;2.28;1.60;;;;;;;26.30;42.80;96453.84;4990551;28;21316;-72
2022/05/18 11:01:13;;;;;;;3.42;1.58;;;;;;;26.31;40.58;96452.84;4990928;28;24499;-71
2022/05/18 11:03:50;;;;;;;2.53;1.60;;;;;;;26.33;40.11;96457.13;4991245;28;24448;-72
2022/05/18 11:06:20;;;;;;;2.30;1.60;;;;;;;26.25;44.41;96450.06;4991428;28;24501;-72
2022/05/18 11:08:50;;;;;;;3.90;1.70;;;;;;;26.13;43.35;96448.81;4991362;28;24917;-72
2022/05/18 11:11:26;;;;;;;2.35;1.52;;;;;;;26.23;43.05;96446.78;4991442;28;24453;-72
2022/05/18 11:14:02;;;;;;;3.28;1.63;;;;;;;26.07;38.66;96439.75;4991352;28;24436;-72
2022/05/18 11:16:41;;;;;;;3.15;1.58;;;;;;;26.27;43.43;96438.25;4986102;28;24986;-73
2022/05/18 11:19:22;;;;;;;3.07;1.63;;;;;;;26.32;43.48;96437.72;4990793;28;24567;-73
2022/05/18 11:21:59;;;;;;;2.55;1.48;;;;;;;26.04;39.97;96445.41;4980461;28;24986;-72
2022/05/18 11:24:35;;;;;;;3.50;1.60;;;;;;;25.93;42.31;96433.38;4991045;28;24544;-73
2022/05/18 11:27:15;;;;;;;4.17;1.67;;;;;;;26.17;43.49;96442.16;4991121;28;24552;-73
2022/05/18 11:29:58;;;;;;;3.80;1.60;;;;;;;26.21;44.25;96431.00;4990975;28;24440;-72
2022/05/18 11:32:33;;;;;;;7.07;1.73;;;;;;;26.26;45.37;96431.31;4991008;28;24802;-73
2022/05/18 11:35:11;;;;;;;5.15;1.63;;;;;;;25.94;45.31;96439.50;4990850;28;24504;-73
2022/05/18 11:37:56;;;;;;;3.03;1.75;;;;;;;25.82;41.10;96433.78;4990980;28;25013;-73
2022/05/18 11:40:34;;;;;;;3.10;1.63;;;;;;;25.98;45.32;96430.19;4990984;28;24517;-72
2022/05/18 11:45:58;;;;;;;3.53;1.70;;;;;;;26.02;39.12;96429.66;4986740;28;24459;-72
2022/05/18 11:48:32;;;;;;;4.43;2.08;;;;;;;26.17;39.37;96427.06;4990063;28;24970;-74
2022/05/18 11:51:09;;;;;;;3.53;1.70;;;;;;;26.49;44.84;96422.53;4991311;28;24444;-72
2022/05/18 11:53:48;;;;;;;4.03;1.80;;;;;;;26.41;44.20;96417.25;4989789;28;24444;-72
2022/05/18 11:56:26;;;;;;;3.07;2.00;;;;;;;26.22;43.20;96410.63;4990338;28;24456;-72